Time;durP1;ratioP1;P1;durP2;ratioP2;P2;SDS_P1;SDS_P2;PMS_P1;PMS_P2;Temp;Humidity;BMP_temperature;BMP_pressure;BME280_temperature;BME280_humidity;BME280_pressure;Samples;Min_cycle;Max_cycle;Signal;HPM_P1;HPM_P2
2022/12/05 00:02:05;;;;;;;54.45;18.25;;;;;;;5.35;72.29;98916.31;5107456;29;20055;-83
2022/12/05 00:04:56;;;;;;;57.33;16.70;;;;;;;5.47;71.53;98926.88;5111644;29;20071;-84
2022/12/05 00:07:46;;;;;;;48.60;15.65;;;;;;;5.35;71.71;98910.22;5123862;29;20070;-84
2022/12/05 00:10:38;;;;;;;57.00;17.10;;;;;;;5.49;71.59;98943.38;5126697;28;20425;-84
2022/12/05 00:13:28;;;;;;;52.20;17.48;;;;;;;5.72;71.70;98963.56;5110008;29;20056;-84
2022/12/05 00:16:22;;;;;;;51.20;17.00;;;;;;;5.62;71.67;98955.50;5111929;29;20063;-84
2022/12/05 00:19:14;;;;;;;53.33;16.58;;;;;;;5.61;72.07;98956.47;5095234;29;20126;-84
2022/12/05 00:22:04;;;;;;;51.80;17.13;;;;;;;5.43;72.18;98936.78;5111211;29;20075;-84
2022/12/05 00:24:55;;;;;;;53.20;17.95;;;;;;;5.42;71.48;98929.84;5108518;29;20048;-84
2022/12/05 00:27:45;;;;;;;47.20;16.58;;;;;;;5.64;71.48;98952.78;5108388;29;20066;-83
2022/12/05 00:30:39;;;;;;;44.38;16.88;;;;;;;5.47;70.45;98946.13;5109779;29;20083;-84
2022/12/05 00:33:29;;;;;;;41.88;16.35;;;;;;;5.33;69.79;98947.16;5108306;29;20054;-83
2022/12/05 00:36:26;;;;;;;40.67;15.35;;;;;;;5.55;68.29;98961.34;5108884;29;20062;-84
2022/12/05 00:39:16;;;;;;;41.72;15.60;;;;;;;5.27;69.68;98949.38;5110357;29;20062;-84
2022/12/05 00:42:06;;;;;;;38.05;14.95;;;;;;;5.19;69.81;98918.38;5121171;29;20048;-83
2022/12/05 00:44:56;;;;;;;40.22;14.27;;;;;;;5.35;69.69;98934.72;5106600;29;20438;-84
2022/12/05 00:47:46;;;;;;;39.83;15.30;;;;;;;5.36;70.34;98931.16;5110118;29;20102;-84
2022/12/05 00:50:37;;;;;;;36.30;14.52;;;;;;;5.41;69.95;98936.06;5097995;29;20058;-83
2022/12/05 00:53:27;;;;;;;37.55;14.63;;;;;;;5.36;70.09;98941.66;5114843;28;20063;-83
2022/12/05 00:56:20;;;;;;;36.33;14.85;;;;;;;5.36;70.04;98954.81;5116556;29;20047;-84
2022/12/05 00:59:16;;;;;;;37.58;15.82;;;;;;;5.22;70.04;98939.19;5117855;29;20107;-84
2022/12/05 01:02:07;;;;;;;39.63;15.23;;;;;;;5.23;69.65;98934.75;5114066;29;20059;-84
2022/12/05 01:04:56;;;;;;;39.53;15.98;;;;;;;5.41;68.86;98960.56;5114998;29;20102;-84
2022/12/05 01:07:46;;;;;;;37.92;14.38;;;;;;;5.33;68.93;98952.41;5116695;29;20066;-83
2022/12/05 01:10:36;;;;;;;40.10;15.80;;;;;;;5.28;68.79;98967.66;5118024;29;20058;-83
2022/12/05 01:13:28;;;;;;;44.00;16.67;;;;;;;5.26;69.07;98963.44;5120167;29;20065;-84
2022/12/05 01:16:25;;;;;;;38.55;15.52;;;;;;;5.09;68.73;98959.41;5124698;29;20051;-83
2022/12/05 01:19:22;;;;;;;38.47;14.43;;;;;;;5.21;69.64;98997.97;5135192;29;20115;-83
2022/12/05 01:22:12;;;;;;;36.33;14.25;;;;;;;5.30;68.93;98991.22;5124377;29;20071;-84
2022/12/05 01:25:04;;;;;;;39.47;14.60;;;;;;;5.16;69.29;98987.78;5115722;29;20071;-84
2022/12/05 01:27:54;;;;;;;37.75;14.98;;;;;;;5.33;68.47;98986.59;5115774;29;20063;-83
2022/12/05 01:30:47;;;;;;;38.67;14.82;;;;;;;5.49;67.71;99017.00;5116453;29;20054;-83
2022/12/05 01:33:38;;;;;;;43.90;15.43;;;;;;;5.43;67.16;99015.69;5096958;29;20110;-84
2022/12/05 01:36:28;;;;;;;41.25;15.38;;;;;;;5.50;66.76;99014.28;5109932;29;20063;-84
2022/12/05 01:39:19;;;;;;;41.40;15.18;;;;;;;5.15;68.57;98998.41;5111935;29;20063;-83
2022/12/05 01:42:10;;;;;;;44.95;15.13;;;;;;;5.19;67.60;98994.59;5108498;29;20100;-83
2022/12/05 01:45:05;;;;;;;38.75;14.57;;;;;;;5.28;68.67;99014.16;5111102;29;20062;-83
2022/12/05 01:47:56;;;;;;;42.08;15.70;;;;;;;5.29;67.39;99005.28;5108195;29;20524;-83
2022/12/05 01:50:49;;;;;;;45.25;15.02;;;;;;;5.21;68.56;99005.84;5106871;29;20134;-83
2022/12/05 01:53:39;;;;;;;41.92;16.20;;;;;;;5.29;68.57;99000.88;5106539;29;20148;-83
2022/12/05 01:56:31;;;;;;;44.30;15.23;;;;;;;5.09;68.15;99010.19;5118502;28;20062;-83
2022/12/05 01:59:23;;;;;;;47.15;16.45;;;;;;;4.89;68.97;98992.38;5114017;29;20059;-83
2022/12/05 02:02:14;;;;;;;47.45;15.70;;;;;;;4.87;69.15;99007.41;5113926;29;20062;-83
2022/12/05 02:05:17;;;;;;;50.08;15.95;;;;;;;4.98;68.96;98994.34;5096484;29;20114;-83
2022/12/05 02:08:10;;;;;;;40.20;15.13;;;;;;;5.09;69.38;99018.06;5099194;29;20051;-83
2022/12/05 02:11:00;;;;;;;51.92;16.77;;;;;;;5.05;68.88;99003.47;5111087;29;20075;-83
2022/12/05 02:14:26;;;;;;;44.28;15.90;;;;;;;5.18;67.57;99017.41;5109454;29;20538;-83
2022/12/05 02:17:42;;;;;;;52.08;16.52;;;;;;;5.21;68.82;99028.69;5095570;29;20056;-83
2022/12/05 02:20:42;;;;;;;48.75;14.90;;;;;;;5.14;69.19;99028.28;5124416;28;20083;-83
2022/12/05 02:23:47;;;;;;;44.03;15.10;;;;;;;5.12;69.37;99030.16;5095374;29;20070;-83
2022/12/05 02:27:05;;;;;;;43.95;15.38;;;;;;;5.01;69.00;99030.91;5123282;28;20070;-84
2022/12/05 02:30:19;;;;;;;38.88;14.55;;;;;;;5.19;68.47;99016.47;5122226;29;20055;-84
2022/12/05 02:33:15;;;;;;;37.05;15.00;;;;;;;5.21;68.89;99028.69;5111375;29;20055;-83
2022/12/05 02:36:22;;;;;;;42.47;14.77;;;;;;;5.13;67.87;99016.94;5105055;29;20054;-83
2022/12/05 02:39:18;;;;;;;41.67;15.05;;;;;;;5.18;68.49;99035.00;5112996;29;20066;-83
2022/12/05 02:42:18;;;;;;;41.28;15.52;;;;;;;5.26;68.53;99048.41;5124291;29;20048;-83
2022/12/05 02:45:12;;;;;;;45.03;15.50;;;;;;;4.74;68.56;98985.56;5128484;29;20066;-83
2022/12/05 02:48:05;;;;;;;44.08;15.23;;;;;;;4.93;69.46;99031.47;5114500;29;20190;-83
2022/12/05 02:50:58;;;;;;;43.55;14.98;;;;;;;5.18;68.28;99066.53;5113958;29;20111;-84
2022/12/05 02:53:50;;;;;;;38.00;14.27;;;;;;;5.11;68.61;99076.63;5132828;29;20106;-83
2022/12/05 02:56:44;;;;;;;38.20;13.50;;;;;;;5.09;68.68;99075.88;5096292;29;20062;-83
2022/12/05 02:59:35;;;;;;;41.22;14.90;;;;;;;5.11;68.35;99065.28;5125900;28;20059;-83
2022/12/05 03:02:32;;;;;;;37.63;15.35;;;;;;;5.28;68.27;99080.72;5109837;29;20074;-83
2022/12/05 03:05:46;;;;;;;41.85;15.35;;;;;;;5.32;68.11;99078.69;5111508;29;20062;-84
2022/12/05 03:08:44;;;;;;;44.50;14.55;;;;;;;5.16;68.08;99064.00;5110322;29;20059;-83
2022/12/05 03:11:41;;;;;;;41.30;14.27;;;;;;;4.95;68.35;99045.31;5122808;29;20060;-84
2022/12/05 03:14:37;;;;;;;37.75;13.13;;;;;;;5.08;69.30;99073.38;5112530;29;20580;-84
2022/12/05 03:17:34;;;;;;;37.63;13.73;;;;;;;5.07;67.84;99062.03;5112335;29;20136;-83
2022/12/05 03:20:33;;;;;;;38.75;13.52;;;;;;;5.25;66.74;99074.81;5100680;29;20082;-84
2022/12/05 03:23:33;;;;;;;31.42;12.43;;;;;;;5.44;67.23;99085.72;5115116;29;20062;-84
2022/12/05 03:26:36;;;;;;;32.42;13.13;;;;;;;5.09;68.09;99033.84;5113658;29;20111;-84
2022/12/05 03:29:35;;;;;;;33.90;12.63;;;;;;;5.28;68.65;99064.94;5129546;29;20478;-84
2022/12/05 03:32:48;;;;;;;32.67;12.88;;;;;;;5.21;68.63;99033.94;5107239;29;20060;-83
2022/12/05 03:35:58;;;;;;;34.25;12.10;;;;;;;5.27;67.69;99044.03;5109111;29;20052;-84
2022/12/05 03:38:55;;;;;;;37.10;12.82;;;;;;;5.41;67.54;99055.22;5105859;29;20061;-83
2022/12/05 03:41:57;;;;;;;35.50;12.75;;;;;;;5.36;67.66;99032.81;5110139;29;20079;-83
2022/12/05 03:45:01;;;;;;;32.50;11.88;;;;;;;5.38;68.35;99057.22;5113603;29;20050;-83
2022/12/05 03:48:09;;;;;;;32.15;13.13;;;;;;;5.35;68.59;99062.72;5125322;29;20048;-83
2022/12/05 03:51:02;;;;;;;34.97;13.45;;;;;;;5.39;68.66;99062.38;5118600;29;20048;-84
2022/12/05 03:53:59;;;;;;;29.88;13.23;;;;;;;5.43;68.10;99065.66;5109514;29;20075;-83
2022/12/05 03:56:58;;;;;;;30.05;11.52;;;;;;;5.35;69.37;99068.81;5111793;29;20058;-84
2022/12/05 03:59:56;;;;;;;27.38;12.25;;;;;;;5.39;68.81;99059.75;5098700;29;20052;-84
2022/12/05 04:03:06;;;;;;;32.50;12.68;;;;;;;5.40;68.74;99053.56;5114340;29;20054;-83
2022/12/05 04:06:00;;;;;;;30.77;11.93;;;;;;;5.44;69.02;99055.97;5123850;28;20083;-84
2022/12/05 04:08:56;;;;;;;28.27;12.40;;;;;;;5.37;68.64;99060.81;5103890;29;20457;-83
2022/12/05 04:11:54;;;;;;;31.20;11.60;;;;;;;5.49;68.13;99049.41;5120984;29;20047;-82
2022/12/05 04:14:49;;;;;;;31.40;11.63;;;;;;;5.59;68.06;99081.16;5113286;29;20051;-83
2022/12/05 04:17:50;;;;;;;27.15;11.65;;;;;;;5.49;68.00;99078.34;5106359;29;20178;-84
2022/12/05 04:27:36;;;;;;;32.50;12.77;;;;;;;5.17;69.38;99068.31;5107008;29;20116;-84
2022/12/05 04:30:41;;;;;;;37.00;13.45;;;;;;;5.31;69.01;99071.75;5101989;29;20059;-85
2022/12/05 04:33:49;;;;;;;32.05;12.10;;;;;;;5.38;68.81;99078.25;5108838;29;20138;-83
2022/12/05 04:36:58;;;;;;;29.30;11.98;;;;;;;5.54;68.49;99086.75;5104266;29;20554;-83
2022/12/05 04:40:00;;;;;;;33.63;12.35;;;;;;;5.54;68.12;99092.00;5122195;28;20844;-83
2022/12/05 04:42:53;;;;;;;29.75;12.68;;;;;;;5.67;68.83;99091.13;5101543;29;20051;-84
2022/12/05 04:45:44;;;;;;;29.90;11.70;;;;;;;5.43;69.35;99063.03;5113159;29;20055;-84
2022/12/05 04:48:37;;;;;;;26.95;10.82;;;;;;;5.55;70.31;99087.59;5114468;29;20086;-84
2022/12/05 04:51:33;;;;;;;26.77;11.63;;;;;;;5.45;69.72;99062.91;5101762;29;20074;-83
2022/12/05 04:54:36;;;;;;;29.98;11.52;;;;;;;5.46;69.61;99086.44;5102466;29;20529;-84
2022/12/05 04:57:35;;;;;;;29.33;11.98;;;;;;;5.50;69.03;99092.34;5102190;29;20063;-84
2022/12/05 05:00:28;;;;;;;35.45;12.98;;;;;;;5.58;69.85;99097.88;5111699;29;20108;-84
2022/12/05 05:03:28;;;;;;;30.15;12.02;;;;;;;5.59;69.69;99107.44;5102494;29;20063;-84
2022/12/05 05:06:19;;;;;;;31.48;12.05;;;;;;;5.56;69.54;99111.16;5109308;29;20056;-84
2022/12/05 05:09:10;;;;;;;27.48;11.52;;;;;;;5.60;69.39;99111.78;5099202;29;20055;-84
2022/12/05 05:12:00;;;;;;;33.17;11.88;;;;;;;5.53;69.04;99081.56;5102173;29;20045;-83
2022/12/05 05:14:50;;;;;;;30.30;12.02;;;;;;;5.39;68.39;99058.91;5099596;29;20099;-83
2022/12/05 05:17:40;;;;;;;28.45;11.57;;;;;;;5.67;68.34;99106.91;5113106;29;20108;-84
2022/12/05 05:20:30;;;;;;;28.08;11.48;;;;;;;5.51;68.82;99079.06;5117141;29;20075;-84
2022/12/05 05:23:20;;;;;;;28.23;11.50;;;;;;;5.58;69.64;99087.38;5103825;29;20056;-84
2022/12/05 05:26:10;;;;;;;27.83;12.55;;;;;;;5.57;69.56;99089.16;5111568;29;20066;-84
2022/12/05 05:29:02;;;;;;;28.80;11.95;;;;;;;5.58;69.56;99085.56;5106146;29;20055;-83
2022/12/05 05:31:52;;;;;;;30.63;11.93;;;;;;;5.55;69.77;99101.56;5094424;29;20731;-83
2022/12/05 05:34:43;;;;;;;27.73;11.05;;;;;;;5.60;69.90;99104.72;5098754;29;20050;-83
2022/12/05 05:37:33;;;;;;;33.17;13.10;;;;;;;5.57;70.17;99104.94;5086347;29;20051;-83
2022/12/05 05:40:23;;;;;;;34.22;12.98;;;;;;;5.88;68.49;99132.50;5103114;29;20056;-83
2022/12/05 05:43:13;;;;;;;35.58;12.38;;;;;;;5.67;69.92;99139.31;5120467;29;20090;-83
2022/12/05 05:46:03;;;;;;;32.33;13.60;;;;;;;5.55;70.23;99130.50;5108697;29;20055;-83
2022/12/05 05:48:54;;;;;;;37.10;14.02;;;;;;;5.66;69.44;99140.25;5102157;29;20429;-84
2022/12/05 05:51:44;;;;;;;36.35;13.27;;;;;;;5.50;69.49;99126.53;5119947;29;20426;-84
2022/12/05 05:54:34;;;;;;;37.38;14.48;;;;;;;5.52;69.40;99111.47;5093331;29;20059;-84
2022/12/05 05:57:24;;;;;;;36.50;13.40;;;;;;;5.56;69.42;99142.72;5112271;29;20618;-84
2022/12/05 06:00:15;;;;;;;37.70;13.90;;;;;;;5.57;69.67;99147.03;5121735;28;20070;-85
2022/12/05 06:03:05;;;;;;;39.63;14.27;;;;;;;5.47;69.77;99143.38;5119910;28;20174;-83
2022/12/05 06:05:57;;;;;;;42.13;14.98;;;;;;;5.16;69.31;99102.59;5111320;29;20509;-83
2022/12/05 06:08:48;;;;;;;47.47;14.52;;;;;;;5.42;69.03;99137.56;5115046;29;20486;-84
2022/12/05 06:11:38;;;;;;;37.28;13.82;;;;;;;5.70;68.65;99151.44;5114888;29;20678;-83
2022/12/05 06:14:28;;;;;;;44.42;15.23;;;;;;;5.68;68.42;99145.41;5119391;29;20048;-84
2022/12/05 06:17:19;;;;;;;44.00;14.75;;;;;;;5.62;68.95;99141.44;5105477;29;20063;-82
2022/12/05 06:20:09;;;;;;;41.80;14.30;;;;;;;5.67;69.38;99139.31;5120273;29;20191;-83
2022/12/05 06:23:00;;;;;;;45.50;13.88;;;;;;;5.81;69.42;99160.22;5114052;29;20047;-84
2022/12/05 06:25:52;;;;;;;38.17;14.40;;;;;;;5.51;68.93;99100.13;5104065;29;20052;-84
2022/12/05 06:28:43;;;;;;;36.72;13.88;;;;;;;5.52;69.32;99109.66;5119543;29;20048;-84
2022/12/05 06:31:34;;;;;;;34.28;13.27;;;;;;;5.88;68.59;99150.94;5106019;29;20138;-84
2022/12/05 06:34:24;;;;;;;32.72;13.50;;;;;;;5.73;69.80;99149.41;5106332;29;20067;-84
2022/12/05 06:37:14;;;;;;;44.85;15.23;;;;;;;5.99;69.44;99155.44;5105217;29;20058;-84
2022/12/05 06:40:06;;;;;;;33.90;13.88;;;;;;;5.73;69.70;99146.78;5105683;29;20521;-83
2022/12/05 06:42:57;;;;;;;40.45;14.05;;;;;;;5.72;69.91;99144.25;5106286;29;20670;-84
2022/12/05 06:45:47;;;;;;;39.45;14.30;;;;;;;5.64;69.34;99129.84;5103947;29;20177;-85
2022/12/05 06:48:38;;;;;;;38.35;13.82;;;;;;;5.77;69.45;99176.34;5105400;29;20063;-84
2022/12/05 06:51:28;;;;;;;40.83;15.32;;;;;;;5.67;69.35;99172.69;5113122;28;20187;-84
2022/12/05 06:54:18;;;;;;;40.72;15.20;;;;;;;5.71;69.54;99197.81;5117259;29;20084;-83
2022/12/05 06:57:08;;;;;;;42.92;15.13;;;;;;;5.77;69.40;99190.34;5105026;29;20055;-84
2022/12/05 07:03:09;;;;;;;38.03;14.13;;;;;;;5.67;69.12;99184.03;5104379;29;20051;-84
2022/12/05 07:06:01;;;;;;;49.28;16.17;;;;;;;5.86;69.18;99212.50;5115972;28;20051;-83
2022/12/05 07:08:52;;;;;;;46.63;16.35;;;;;;;5.86;69.53;99207.25;5107025;29;20055;-84
2022/12/05 07:11:45;;;;;;;43.33;15.00;;;;;;;5.77;69.34;99190.34;5075306;29;20059;-84
2022/12/05 07:14:35;;;;;;;44.47;15.02;;;;;;;5.76;69.17;99199.19;5081160;29;20143;-85
2022/12/05 07:17:38;;;;;;;45.28;15.02;;;;;;;5.75;69.42;99202.75;5082985;29;20114;-84
2022/12/05 07:20:28;;;;;;;37.88;14.23;;;;;;;5.79;68.64;99188.41;5074677;29;20071;-84
2022/12/05 07:23:40;;;;;;;37.85;14.02;;;;;;;5.98;69.54;99209.03;5111353;29;20048;-84
2022/12/05 07:26:30;;;;;;;36.50;14.38;;;;;;;5.87;69.41;99196.63;5107390;29;20573;-84
2022/12/05 07:29:20;;;;;;;39.10;14.63;;;;;;;5.89;68.67;99205.25;5119750;29;20115;-84
2022/12/05 07:32:11;;;;;;;42.58;16.38;;;;;;;5.74;69.27;99187.91;5111230;29;20045;-84
2022/12/05 07:35:01;;;;;;;43.35;14.82;;;;;;;6.00;68.26;99208.94;5100767;29;20178;-84
2022/12/05 07:37:51;;;;;;;41.85;15.10;;;;;;;5.54;70.13;99199.84;5087475;29;20932;-85
2022/12/05 07:40:41;;;;;;;40.47;14.48;;;;;;;5.95;68.67;99219.78;5091822;29;20103;-84
2022/12/05 07:43:31;;;;;;;43.58;14.57;;;;;;;5.98;69.42;99219.56;5106476;29;20051;-84
2022/12/05 07:46:23;;;;;;;41.00;14.73;;;;;;;6.03;69.68;99209.56;5109450;29;20100;-84
2022/12/05 07:49:14;;;;;;;37.58;14.35;;;;;;;6.07;69.52;99231.25;5108625;29;20071;-84
2022/12/05 07:52:04;;;;;;;40.33;14.73;;;;;;;5.98;69.71;99209.03;5103160;29;20138;-84
2022/12/05 07:54:54;;;;;;;39.00;14.07;;;;;;;6.14;68.76;99216.69;5112352;29;20508;-84
2022/12/05 07:57:44;;;;;;;44.50;16.42;;;;;;;6.21;68.88;99243.41;5106563;29;20055;-84
2022/12/05 08:00:34;;;;;;;40.75;15.77;;;;;;;5.98;69.25;99227.47;5102909;29;20061;-84
2022/12/05 08:03:24;;;;;;;38.05;15.00;;;;;;;5.99;68.75;99218.63;5107530;29;20198;-84
2022/12/05 08:06:20;;;;;;;43.47;14.52;;;;;;;6.01;69.68;99215.88;5107240;29;20059;-85
2022/12/05 08:09:11;;;;;;;38.40;14.32;;;;;;;6.08;69.12;99225.03;5117865;29;20062;-84
2022/12/05 08:12:01;;;;;;;37.95;13.77;;;;;;;5.84;69.76;99220.53;5104016;29;20597;-85
2022/12/05 08:14:51;;;;;;;35.25;13.93;;;;;;;5.87;69.43;99193.16;5103887;29;20136;-84
2022/12/05 08:17:41;;;;;;;37.25;14.88;;;;;;;6.05;69.84;99246.28;5090829;29;20581;-85
2022/12/05 08:20:31;;;;;;;33.55;14.25;;;;;;;6.01;70.21;99237.78;5106810;29;20056;-85
2022/12/05 08:23:21;;;;;;;39.60;15.48;;;;;;;6.08;69.69;99241.66;5089893;29;20750;-84
2022/12/05 08:26:19;;;;;;;36.45;14.60;;;;;;;6.14;70.43;99235.13;5103848;29;20052;-84
2022/12/05 08:29:12;;;;;;;38.58;15.63;;;;;;;6.10;69.87;99236.28;5116237;28;20071;-84
2022/12/05 08:32:02;;;;;;;37.47;14.93;;;;;;;6.11;69.59;99227.44;5101711;29;20528;-83
2022/12/05 08:34:52;;;;;;;36.83;15.13;;;;;;;6.28;69.67;99247.28;5114486;28;20183;-83
2022/12/05 08:37:42;;;;;;;38.03;14.32;;;;;;;6.24;69.90;99253.75;5101131;29;20093;-83
2022/12/05 08:40:33;;;;;;;39.40;16.13;;;;;;;6.38;70.59;99265.91;5098794;29;20060;-83
2022/12/05 08:43:23;;;;;;;42.08;15.75;;;;;;;6.28;69.29;99253.41;5100425;29;20062;-83
2022/12/05 08:46:13;;;;;;;36.33;15.98;;;;;;;6.35;69.79;99259.06;5102104;29;20062;-85
2022/12/05 08:49:04;;;;;;;36.78;15.40;;;;;;;6.19;69.56;99261.97;5101790;29;20051;-84
2022/12/05 08:51:55;;;;;;;37.10;14.23;;;;;;;6.23;69.20;99270.50;5101614;29;20055;-84
2022/12/05 08:54:45;;;;;;;40.42;15.60;;;;;;;6.27;69.43;99266.69;5103204;29;20079;-84
2022/12/05 08:57:35;;;;;;;38.00;15.57;;;;;;;6.31;70.25;99273.41;5104289;29;20154;-84
2022/12/05 09:00:25;;;;;;;38.75;14.85;;;;;;;6.48;69.72;99275.66;5101729;29;20164;-84
2022/12/05 09:03:15;;;;;;;35.22;14.90;;;;;;;6.08;69.93;99277.66;5131288;29;20036;-85
2022/12/05 09:06:12;;;;;;;36.45;14.98;;;;;;;6.39;69.36;99289.50;5098525;29;20110;-84
2022/12/05 09:09:05;;;;;;;36.97;14.60;;;;;;;6.43;68.24;99283.06;5099769;29;20061;-84
2022/12/05 09:11:56;;;;;;;42.55;14.48;;;;;;;6.42;68.66;99297.16;5110972;29;20063;-84
2022/12/05 09:14:46;;;;;;;39.42;14.45;;;;;;;6.35;69.43;99302.03;5102262;29;20126;-83
2022/12/05 09:17:37;;;;;;;36.15;14.27;;;;;;;6.47;68.90;99305.59;5091156;29;20434;-84
2022/12/05 09:20:27;;;;;;;34.47;13.73;;;;;;;6.52;68.36;99289.44;5094744;29;20082;-83
2022/12/05 09:23:17;;;;;;;32.90;14.52;;;;;;;6.52;69.19;99297.34;5103886;29;20114;-84
2022/12/05 09:26:11;;;;;;;36.60;14.50;;;;;;;6.49;69.00;99261.56;5099939;29;20429;-84
2022/12/05 09:29:02;;;;;;;30.92;13.35;;;;;;;6.77;69.03;99317.50;5092547;29;20529;-84
2022/12/05 09:31:54;;;;;;;37.45;14.10;;;;;;;6.75;68.32;99298.31;5104148;29;20517;-84
2022/12/05 09:34:44;;;;;;;34.63;14.40;;;;;;;6.79;68.73;99326.16;5119538;29;20826;-85
2022/12/05 09:37:35;;;;;;;33.15;13.85;;;;;;;6.63;69.03;99302.69;5121237;29;20103;-84
2022/12/05 09:40:29;;;;;;;36.17;15.20;;;;;;;6.79;67.84;99311.19;5106196;29;20055;-84
2022/12/05 09:43:36;;;;;;;36.83;14.88;;;;;;;6.85;68.82;99320.41;5094868;29;20614;-84
2022/12/05 09:46:42;;;;;;;42.80;17.73;;;;;;;6.89;69.11;99336.84;5107210;29;20058;-84
2022/12/05 09:49:35;;;;;;;36.88;15.30;;;;;;;6.86;69.38;99329.19;5121025;29;20084;-84
2022/12/05 09:52:38;;;;;;;34.95;14.50;;;;;;;6.85;68.07;99333.59;5109235;29;20095;-85
2022/12/05 09:55:48;;;;;;;34.83;14.80;;;;;;;6.60;68.08;99289.75;5103427;29;20123;-85
2022/12/05 09:58:45;;;;;;;36.95;14.40;;;;;;;6.89;68.38;99324.53;5108455;29;20284;-85
2022/12/05 10:01:42;;;;;;;33.17;14.98;;;;;;;6.66;68.68;99293.75;5123917;28;20047;-86
2022/12/05 10:04:50;;;;;;;36.25;14.63;;;;;;;7.00;67.79;99342.19;5109768;29;20079;-85
2022/12/05 10:08:18;;;;;;;36.35;14.15;;;;;;;7.03;68.99;99339.31;5111878;29;20053;-84
2022/12/05 10:11:38;;;;;;;36.58;14.85;;;;;;;6.92;68.98;99316.41;5122766;28;20120;-85
2022/12/05 10:15:00;;;;;;;31.85;14.02;;;;;;;7.14;68.62;99349.06;5121166;28;20059;-85
2022/12/05 10:18:38;;;;;;;33.92;13.82;;;;;;;7.25;66.88;99338.56;5123311;28;20048;-85
2022/12/05 10:21:32;;;;;;;37.13;13.90;;;;;;;7.30;67.75;99342.53;5111811;28;20052;-83
2022/12/05 10:24:35;;;;;;;33.80;13.43;;;;;;;7.28;67.92;99333.06;5103830;29;20048;-84
2022/12/05 10:27:34;;;;;;;31.00;13.15;;;;;;;7.36;68.26;99346.53;5102625;29;20062;-84
2022/12/05 10:30:32;;;;;;;35.30;14.90;;;;;;;7.20;67.66;99322.25;5105954;29;20055;-85
2022/12/05 10:33:23;;;;;;;33.95;15.40;;;;;;;7.21;68.24;99321.28;5093201;29;20062;-84
2022/12/05 10:36:14;;;;;;;34.45;13.77;;;;;;;7.28;68.63;99335.69;5123505;28;20118;-84
2022/12/05 10:39:04;;;;;;;32.22;14.75;;;;;;;7.19;68.57;99307.41;5109351;29;20058;-84
2022/12/05 10:42:01;;;;;;;46.20;14.90;;;;;;;7.14;68.96;99309.53;5101059;29;20751;-84
2022/12/05 10:44:57;;;;;;;38.25;14.88;;;;;;;7.06;69.37;99305.66;5106844;29;20059;-84
2022/12/05 10:47:52;;;;;;;36.60;15.18;;;;;;;7.14;68.94;99312.16;5100036;29;20047;-84
2022/12/05 10:50:47;;;;;;;37.67;14.93;;;;;;;7.01;69.05;99299.88;5116727;29;20062;-85
2022/12/05 10:53:42;;;;;;;33.47;15.05;;;;;;;7.14;69.74;99310.34;5105559;29;20050;-85
2022/12/05 10:56:46;;;;;;;48.10;20.33;;;;;;;7.20;68.89;99309.06;5104602;29;20147;-84
2022/12/05 10:59:46;;;;;;;39.75;16.45;;;;;;;7.13;68.77;99300.78;5116842;29;20146;-85
2022/12/05 11:02:39;;;;;;;36.80;15.10;;;;;;;7.27;68.86;99307.66;5118451;28;20055;-84
2022/12/05 11:05:32;;;;;;;34.97;14.35;;;;;;;7.14;68.57;99285.78;5122450;28;20734;-83
2022/12/05 11:08:31;;;;;;;35.08;14.88;;;;;;;7.23;69.77;99309.69;5105520;29;20421;-83
2022/12/05 11:11:41;;;;;;;33.85;14.55;;;;;;;7.29;69.31;99297.84;5116900;29;20114;-83
2022/12/05 11:14:33;;;;;;;38.90;15.25;;;;;;;7.48;70.04;99316.59;5108986;29;20091;-83
2022/12/05 11:17:30;;;;;;;30.65;14.63;;;;;;;7.44;69.06;99319.56;5113287;28;20062;-84
2022/12/05 11:20:20;;;;;;;44.05;15.40;;;;;;;7.59;69.65;99317.56;5099615;29;20550;-85
2022/12/05 11:23:24;;;;;;;37.63;15.30;;;;;;;7.75;69.02;99310.16;5104597;29;20511;-84
2022/12/05 11:26:34;;;;;;;35.83;16.65;;;;;;;7.88;67.82;99284.50;5102047;29;20107;-84
2022/12/05 11:29:36;;;;;;;41.85;17.48;;;;;;;7.87;68.70;99289.88;5100761;29;20093;-83
2022/12/05 11:32:31;;;;;;;40.38;18.73;;;;;;;8.00;69.06;99296.72;5102219;29;20059;-83
2022/12/05 11:35:25;;;;;;;40.22;17.27;;;;;;;7.93;69.42;99273.56;5117911;28;20136;-83
2022/12/05 11:38:18;;;;;;;37.10;15.40;;;;;;;7.88;68.17;99289.78;5084476;29;20058;-83
2022/12/05 11:41:20;;;;;;;36.53;15.73;;;;;;;8.11;68.44;99306.47;5117205;28;20074;-84
2022/12/05 11:44:18;;;;;;;41.97;19.83;;;;;;;7.96;67.72;99284.72;5112172;28;20134;-84
2022/12/05 11:47:26;;;;;;;38.17;17.75;;;;;;;7.98;67.94;99290.75;5102002;29;20063;-84
2022/12/05 11:50:31;;;;;;;34.50;15.88;;;;;;;7.86;67.75;99243.34;5100595;29;20063;-83
2022/12/05 11:53:46;;;;;;;33.35;14.80;;;;;;;8.17;68.36;99297.19;5101913;29;20134;-83
2022/12/05 11:57:21;;;;;;;35.33;15.15;;;;;;;8.16;68.03;99309.56;5101030;29;20142;-83
2022/12/05 12:00:26;;;;;;;32.38;14.20;;;;;;;8.08;68.32;99316.41;5097329;29;20051;-83
2022/12/05 12:03:26;;;;;;;34.85;14.23;;;;;;;8.30;66.35;99311.13;5105254;29;20118;-84
2022/12/05 12:06:55;;;;;;;30.92;15.25;;;;;;;8.20;65.75;99307.53;5105625;29;20126;-84
2022/12/05 12:10:03;;;;;;;35.30;14.88;;;;;;;8.09;66.71;99305.72;5111220;29;20119;-84
2022/12/05 12:13:14;;;;;;;30.92;13.23;;;;;;;8.02;67.09;99298.41;5114962;28;20106;-84
2022/12/05 12:16:14;;;;;;;33.25;13.32;;;;;;;7.55;68.25;99280.03;5113532;28;20059;-84
2022/12/05 12:19:05;;;;;;;30.88;14.32;;;;;;;7.91;68.81;99302.75;5098545;29;20062;-83
2022/12/05 12:21:58;;;;;;;32.67;15.65;;;;;;;7.80;67.32;99243.81;5092487;29;20125;-84
2022/12/05 12:25:14;;;;;;;30.98;14.52;;;;;;;8.19;68.07;99297.94;5103651;29;20410;-84
2022/12/05 12:28:19;;;;;;;34.45;14.32;;;;;;;8.13;67.41;99298.41;5107874;29;20051;-84
2022/12/05 12:31:27;;;;;;;32.85;13.70;;;;;;;8.07;67.80;99285.69;5099029;29;20055;-84
2022/12/05 12:34:36;;;;;;;32.67;14.30;;;;;;;8.16;68.09;99303.44;5102093;29;20645;-83
2022/12/05 12:37:42;;;;;;;31.77;13.88;;;;;;;8.29;68.50;99303.31;5100562;29;20060;-85
2022/12/05 12:40:52;;;;;;;30.55;14.45;;;;;;;8.31;68.23;99298.75;5105287;29;20051;-84
2022/12/05 12:44:04;;;;;;;28.17;13.00;;;;;;;8.29;67.35;99298.88;5117837;29;20118;-84
2022/12/05 12:46:58;;;;;;;36.78;15.07;;;;;;;7.97;67.29;99296.97;5116087;28;20051;-84
2022/12/05 12:49:51;;;;;;;;;;;;;;;8.24;67.00;99304.53;5120202;28;20518;-82
2022/12/05 12:53:07;;;;;;;37.03;13.77;;;;;;;8.27;67.62;99294.66;5117579;29;19971;-84
2022/12/05 12:56:00;;;;;;;31.02;13.25;;;;;;;8.13;66.89;99293.13;5115786;28;20075;-84
2022/12/05 12:59:06;;;;;;;29.23;13.45;;;;;;;7.81;68.56;99288.56;5093491;29;20453;-84
2022/12/05 13:02:08;;;;;;;26.25;12.88;;;;;;;8.02;69.15;99290.50;5113073;29;20115;-84
2022/12/05 13:05:04;;;;;;;30.20;13.80;;;;;;;8.06;67.87;99289.28;5105137;29;20703;-83
2022/12/05 13:08:31;;;;;;;32.13;13.70;;;;;;;8.21;68.29;99286.28;5089574;29;20058;-82
2022/12/05 13:11:22;;;;;;;28.85;13.23;;;;;;;8.33;67.70;99294.19;5099065;29;20089;-83
2022/12/05 13:14:17;;;;;;;25.80;13.48;;;;;;;8.24;67.74;99286.03;5104816;29;20047;-82
2022/12/05 13:17:14;;;;;;;28.10;13.02;;;;;;;8.33;66.69;99288.91;5115551;28;20055;-83
2022/12/05 13:20:05;;;;;;;27.10;13.45;;;;;;;8.16;66.19;99267.31;5101890;29;20062;-84
2022/12/05 13:22:55;;;;;;;26.60;13.55;;;;;;;8.11;67.44;99256.28;5109385;29;20704;-84
2022/12/05 13:25:46;;;;;;;26.80;13.30;;;;;;;8.27;67.28;99261.16;5106357;28;20074;-83
2022/12/05 13:28:53;;;;;;;27.13;13.68;;;;;;;8.41;67.62;99274.16;5110352;29;20062;-85
2022/12/05 13:31:44;;;;;;;27.95;13.30;;;;;;;8.08;67.02;99245.09;5103559;29;20538;-84
2022/12/05 13:34:49;;;;;;;26.05;13.18;;;;;;;8.28;66.36;99268.16;5100754;29;20056;-84
2022/12/05 13:44:11;;;;;;;27.65;13.90;;;;;;;8.20;66.70;99268.75;5101954;29;20052;-84
2022/12/05 13:47:06;;;;;;;26.27;12.52;;;;;;;8.15;66.45;99276.19;5114452;28;20136;-84
2022/12/05 13:50:06;;;;;;;30.13;13.40;;;;;;;8.26;66.42;99285.91;5098242;29;20087;-84
2022/12/05 13:53:01;;;;;;;32.70;13.65;;;;;;;8.02;66.95;99269.38;5114972;28;20067;-84
2022/12/05 13:55:59;;;;;;;27.80;13.15;;;;;;;8.22;66.91;99302.97;5089592;29;20150;-84
2022/12/05 13:58:55;;;;;;;25.90;12.45;;;;;;;8.20;67.43;99300.44;5112564;29;20075;-84